sensor_id;sensor_type;location;lat;lon;timestamp;P1;durP1;ratioP1;P2;durP2;ratioP2
16822;SDS011;8528;49.976;11.858;2022-08-21T00:00:10;15.20;;;12.60;;
16822;SDS011;8528;49.976;11.858;2022-08-21T00:02:52;18.70;;;11.83;;
16822;SDS011;8528;49.976;11.858;2022-08-21T00:05:24;16.63;;;14.30;;
16822;SDS011;8528;49.976;11.858;2022-08-21T00:07:54;17.73;;;13.93;;
16822;SDS011;8528;49.976;11.858;2022-08-21T00:10:24;20.03;;;14.60;;
16822;SDS011;8528;49.976;11.858;2022-08-21T00:12:51;18.47;;;15.40;;
16822;SDS011;8528;49.976;11.858;2022-08-21T00:15:29;19.03;;;15.03;;
16822;SDS011;8528;49.976;11.858;2022-08-21T00:18:00;20.73;;;15.70;;
16822;SDS011;8528;49.976;11.858;2022-08-21T00:20:27;18.17;;;14.27;;
16822;SDS011;8528;49.976;11.858;2022-08-21T00:22:56;19.17;;;15.30;;
16822;SDS011;8528;49.976;11.858;2022-08-21T00:25:26;18.67;;;15.27;;
16822;SDS011;8528;49.976;11.858;2022-08-21T00:27:53;22.20;;;16.30;;
16822;SDS011;8528;49.976;11.858;2022-08-21T00:30:22;20.77;;;15.87;;
16822;SDS011;8528;49.976;11.858;2022-08-21T00:32:51;21.40;;;16.23;;
16822;SDS011;8528;49.976;11.858;2022-08-21T00:35:24;19.93;;;16.10;;
16822;SDS011;8528;49.976;11.858;2022-08-21T00:38:00;18.83;;;15.57;;
16822;SDS011;8528;49.976;11.858;2022-08-21T00:40:33;17.80;;;15.13;;
16822;SDS011;8528;49.976;11.858;2022-08-21T00:43:03;18.70;;;14.53;;
16822;SDS011;8528;49.976;11.858;2022-08-21T00:45:35;20.63;;;15.40;;
16822;SDS011;8528;49.976;11.858;2022-08-21T00:48:10;16.90;;;14.20;;
16822;SDS011;8528;49.976;11.858;2022-08-21T00:50:40;18.23;;;15.00;;
16822;SDS011;8528;49.976;11.858;2022-08-21T00:53:12;19.90;;;14.87;;
16822;SDS011;8528;49.976;11.858;2022-08-21T00:55:46;19.03;;;15.43;;
16822;SDS011;8528;49.976;11.858;2022-08-21T00:58:20;18.23;;;14.30;;
16822;SDS011;8528;49.976;11.858;2022-08-21T01:00:49;18.30;;;14.83;;
16822;SDS011;8528;49.976;11.858;2022-08-21T01:03:22;18.63;;;15.07;;
16822;SDS011;8528;49.976;11.858;2022-08-21T01:05:54;16.77;;;12.53;;
16822;SDS011;8528;49.976;11.858;2022-08-21T01:08:28;18.13;;;14.23;;
16822;SDS011;8528;49.976;11.858;2022-08-21T01:11:03;15.03;;;13.43;;
16822;SDS011;8528;49.976;11.858;2022-08-21T01:13:31;16.40;;;12.63;;
16822;SDS011;8528;49.976;11.858;2022-08-21T01:16:02;16.93;;;13.60;;
16822;SDS011;8528;49.976;11.858;2022-08-21T01:18:31;15.33;;;13.23;;
16822;SDS011;8528;49.976;11.858;2022-08-21T01:21:18;17.27;;;13.40;;
16822;SDS011;8528;49.976;11.858;2022-08-21T01:23:48;17.07;;;12.87;;
16822;SDS011;8528;49.976;11.858;2022-08-21T01:26:21;17.07;;;12.97;;
16822;SDS011;8528;49.976;11.858;2022-08-21T01:29:01;13.77;;;12.23;;
16822;SDS011;8528;49.976;11.858;2022-08-21T01:31:29;17.93;;;14.10;;
16822;SDS011;8528;49.976;11.858;2022-08-21T01:33:58;20.63;;;18.43;;
16822;SDS011;8528;49.976;11.858;2022-08-21T01:36:29;16.73;;;14.37;;
16822;SDS011;8528;49.976;11.858;2022-08-21T01:38:56;19.20;;;12.83;;
16822;SDS011;8528;49.976;11.858;2022-08-21T01:41:24;18.30;;;13.47;;
16822;SDS011;8528;49.976;11.858;2022-08-21T01:43:51;15.60;;;12.60;;
16822;SDS011;8528;49.976;11.858;2022-08-21T01:46:21;15.73;;;11.60;;
16822;SDS011;8528;49.976;11.858;2022-08-21T01:48:48;13.10;;;11.17;;
16822;SDS011;8528;49.976;11.858;2022-08-21T01:51:15;12.10;;;10.80;;
16822;SDS011;8528;49.976;11.858;2022-08-21T01:53:50;10.53;;;9.53;;
16822;SDS011;8528;49.976;11.858;2022-08-21T01:56:20;11.03;;;9.87;;
16822;SDS011;8528;49.976;11.858;2022-08-21T01:58:57;10.87;;;9.17;;
16822;SDS011;8528;49.976;11.858;2022-08-21T02:01:24;9.83;;;8.83;;
16822;SDS011;8528;49.976;11.858;2022-08-21T02:03:54;10.50;;;9.40;;
16822;SDS011;8528;49.976;11.858;2022-08-21T02:06:23;10.83;;;9.73;;
16822;SDS011;8528;49.976;11.858;2022-08-21T02:08:51;10.93;;;9.67;;
16822;SDS011;8528;49.976;11.858;2022-08-21T02:11:18;10.43;;;9.40;;
16822;SDS011;8528;49.976;11.858;2022-08-21T02:13:45;12.33;;;9.53;;
16822;SDS011;8528;49.976;11.858;2022-08-21T02:16:15;11.03;;;9.83;;
16822;SDS011;8528;49.976;11.858;2022-08-21T02:18:45;9.67;;;8.73;;
16822;SDS011;8528;49.976;11.858;2022-08-21T02:21:21;9.83;;;8.60;;
16822;SDS011;8528;49.976;11.858;2022-08-21T02:23:48;13.40;;;10.17;;
16822;SDS011;8528;49.976;11.858;2022-08-21T02:26:15;15.40;;;10.17;;
16822;SDS011;8528;49.976;11.858;2022-08-21T02:28:43;30.97;;;10.60;;
16822;SDS011;8528;49.976;11.858;2022-08-21T02:31:09;18.50;;;8.77;;
16822;SDS011;8528;49.976;11.858;2022-08-21T02:33:37;36.73;;;10.93;;
16822;SDS011;8528;49.976;11.858;2022-08-21T02:36:10;19.77;;;11.30;;
16822;SDS011;8528;49.976;11.858;2022-08-21T02:38:47;12.27;;;10.37;;
16822;SDS011;8528;49.976;11.858;2022-08-21T02:41:16;11.77;;;10.23;;
16822;SDS011;8528;49.976;11.858;2022-08-21T02:43:44;16.90;;;11.57;;
16822;SDS011;8528;49.976;11.858;2022-08-21T02:46:15;13.23;;;10.57;;
16822;SDS011;8528;49.976;11.858;2022-08-21T02:48:44;12.97;;;9.87;;
16822;SDS011;8528;49.976;11.858;2022-08-21T02:51:17;11.77;;;10.33;;
16822;SDS011;8528;49.976;11.858;2022-08-21T02:53:46;11.43;;;9.57;;
16822;SDS011;8528;49.976;11.858;2022-08-21T02:56:15;12.47;;;10.27;;
16822;SDS011;8528;49.976;11.858;2022-08-21T02:58:46;14.07;;;9.63;;
16822;SDS011;8528;49.976;11.858;2022-08-21T03:01:15;12.70;;;10.20;;
16822;SDS011;8528;49.976;11.858;2022-08-21T03:03:46;12.43;;;10.27;;
16822;SDS011;8528;49.976;11.858;2022-08-21T03:06:19;11.53;;;9.70;;
16822;SDS011;8528;49.976;11.858;2022-08-21T03:08:51;12.60;;;10.57;;
16822;SDS011;8528;49.976;11.858;2022-08-21T03:11:18;12.80;;;10.60;;
16822;SDS011;8528;49.976;11.858;2022-08-21T03:13:47;13.20;;;9.83;;
16822;SDS011;8528;49.976;11.858;2022-08-21T03:16:17;12.80;;;10.67;;
16822;SDS011;8528;49.976;11.858;2022-08-21T03:18:46;14.40;;;11.03;;
16822;SDS011;8528;49.976;11.858;2022-08-21T03:21:16;14.10;;;10.80;;
16822;SDS011;8528;49.976;11.858;2022-08-21T03:23:48;15.63;;;11.00;;
16822;SDS011;8528;49.976;11.858;2022-08-21T03:26:15;12.07;;;9.30;;
16822;SDS011;8528;49.976;11.858;2022-08-21T03:28:47;10.10;;;8.97;;
16822;SDS011;8528;49.976;11.858;2022-08-21T03:31:17;13.40;;;9.67;;
16822;SDS011;8528;49.976;11.858;2022-08-21T03:33:47;32.07;;;13.80;;
16822;SDS011;8528;49.976;11.858;2022-08-21T03:36:14;17.77;;;10.17;;
16822;SDS011;8528;49.976;11.858;2022-08-21T03:38:42;17.17;;;11.60;;
16822;SDS011;8528;49.976;11.858;2022-08-21T03:41:12;13.83;;;10.80;;
16822;SDS011;8528;49.976;11.858;2022-08-21T03:43:39;13.33;;;10.70;;
16822;SDS011;8528;49.976;11.858;2022-08-21T03:46:09;12.33;;;10.50;;
16822;SDS011;8528;49.976;11.858;2022-08-21T03:48:36;13.00;;;10.03;;
16822;SDS011;8528;49.976;11.858;2022-08-21T03:51:03;11.83;;;9.23;;
16822;SDS011;8528;49.976;11.858;2022-08-21T03:53:46;10.00;;;9.00;;
16822;SDS011;8528;49.976;11.858;2022-08-21T03:56:18;11.77;;;9.90;;
16822;SDS011;8528;49.976;11.858;2022-08-21T03:58:45;14.77;;;11.20;;
16822;SDS011;8528;49.976;11.858;2022-08-21T04:01:12;11.73;;;10.00;;
16822;SDS011;8528;49.976;11.858;2022-08-21T04:03:42;14.80;;;11.17;;
16822;SDS011;8528;49.976;11.858;2022-08-21T04:06:09;16.60;;;11.17;;
16822;SDS011;8528;49.976;11.858;2022-08-21T04:08:36;17.07;;;12.07;;
16822;SDS011;8528;49.976;11.858;2022-08-21T04:11:03;21.03;;;10.67;;
16822;SDS011;8528;49.976;11.858;2022-08-21T04:13:31;16.93;;;10.93;;
16822;SDS011;8528;49.976;11.858;2022-08-21T04:16:01;16.27;;;11.77;;
16822;SDS011;8528;49.976;11.858;2022-08-21T04:18:31;19.03;;;12.47;;
16822;SDS011;8528;49.976;11.858;2022-08-21T04:20:58;26.17;;;14.33;;
16822;SDS011;8528;49.976;11.858;2022-08-21T04:23:27;22.70;;;13.87;;
16822;SDS011;8528;49.976;11.858;2022-08-21T04:25:55;22.03;;;14.47;;
16822;SDS011;8528;49.976;11.858;2022-08-21T04:28:23;21.90;;;14.47;;
16822;SDS011;8528;49.976;11.858;2022-08-21T04:30:58;21.63;;;14.43;;
16822;SDS011;8528;49.976;11.858;2022-08-21T04:33:25;20.23;;;13.27;;
16822;SDS011;8528;49.976;11.858;2022-08-21T04:35:52;43.43;;;15.50;;
16822;SDS011;8528;49.976;11.858;2022-08-21T04:38:19;22.00;;;13.37;;
16822;SDS011;8528;49.976;11.858;2022-08-21T04:40:47;25.90;;;14.57;;
16822;SDS011;8528;49.976;11.858;2022-08-21T04:43:18;20.57;;;13.87;;
16822;SDS011;8528;49.976;11.858;2022-08-21T04:45:50;22.20;;;15.77;;
16822;SDS011;8528;49.976;11.858;2022-08-21T04:48:21;24.23;;;16.53;;
16822;SDS011;8528;49.976;11.858;2022-08-21T04:53:28;20.70;;;14.07;;
16822;SDS011;8528;49.976;11.858;2022-08-21T04:56:34;17.07;;;12.63;;
16822;SDS011;8528;49.976;11.858;2022-08-21T04:59:27;15.93;;;10.17;;
16822;SDS011;8528;49.976;11.858;2022-08-21T05:02:01;23.33;;;10.50;;
16822;SDS011;8528;49.976;11.858;2022-08-21T05:04:30;16.27;;;10.27;;
16822;SDS011;8528;49.976;11.858;2022-08-21T05:07:01;23.30;;;12.43;;
16822;SDS011;8528;49.976;11.858;2022-08-21T05:09:33;17.50;;;11.10;;
16822;SDS011;8528;49.976;11.858;2022-08-21T05:12:04;14.63;;;10.80;;
16822;SDS011;8528;49.976;11.858;2022-08-21T05:14:40;17.23;;;12.63;;
16822;SDS011;8528;49.976;11.858;2022-08-21T05:17:09;15.50;;;12.20;;
16822;SDS011;8528;49.976;11.858;2022-08-21T05:19:36;14.53;;;11.37;;
16822;SDS011;8528;49.976;11.858;2022-08-21T05:22:03;17.87;;;11.77;;
16822;SDS011;8528;49.976;11.858;2022-08-21T05:24:32;16.87;;;12.40;;
16822;SDS011;8528;49.976;11.858;2022-08-21T05:27:00;19.50;;;12.33;;
16822;SDS011;8528;49.976;11.858;2022-08-21T05:29:32;18.93;;;13.33;;
16822;SDS011;8528;49.976;11.858;2022-08-21T05:32:10;19.37;;;14.70;;
16822;SDS011;8528;49.976;11.858;2022-08-21T05:34:38;18.43;;;12.23;;
16822;SDS011;8528;49.976;11.858;2022-08-21T05:37:10;17.17;;;12.77;;
16822;SDS011;8528;49.976;11.858;2022-08-21T05:39:38;15.10;;;11.90;;
16822;SDS011;8528;49.976;11.858;2022-08-21T05:42:25;16.37;;;12.50;;
16822;SDS011;8528;49.976;11.858;2022-08-21T05:44:54;15.53;;;11.63;;
16822;SDS011;8528;49.976;11.858;2022-08-21T05:47:21;15.53;;;11.93;;
16822;SDS011;8528;49.976;11.858;2022-08-21T05:49:47;14.40;;;11.27;;
16822;SDS011;8528;49.976;11.858;2022-08-21T05:52:19;16.10;;;11.80;;
16822;SDS011;8528;49.976;11.858;2022-08-21T05:54:47;16.10;;;11.83;;
16822;SDS011;8528;49.976;11.858;2022-08-21T05:57:14;15.00;;;11.30;;
16822;SDS011;8528;49.976;11.858;2022-08-21T05:59:42;13.40;;;10.53;;
16822;SDS011;8528;49.976;11.858;2022-08-21T06:02:20;14.00;;;10.83;;
16822;SDS011;8528;49.976;11.858;2022-08-21T06:04:56;14.17;;;11.20;;
16822;SDS011;8528;49.976;11.858;2022-08-21T06:07:23;11.70;;;9.90;;
16822;SDS011;8528;49.976;11.858;2022-08-21T06:09:50;14.60;;;11.07;;
16822;SDS011;8528;49.976;11.858;2022-08-21T06:12:17;14.13;;;11.10;;
16822;SDS011;8528;49.976;11.858;2022-08-21T06:14:44;12.40;;;10.00;;
16822;SDS011;8528;49.976;11.858;2022-08-21T06:17:11;13.93;;;10.20;;
16822;SDS011;8528;49.976;11.858;2022-08-21T06:19:40;13.80;;;11.07;;
16822;SDS011;8528;49.976;11.858;2022-08-21T06:22:11;14.03;;;11.53;;
16822;SDS011;8528;49.976;11.858;2022-08-21T06:24:38;14.13;;;11.53;;
16822;SDS011;8528;49.976;11.858;2022-08-21T06:27:05;14.27;;;11.40;;
16822;SDS011;8528;49.976;11.858;2022-08-21T06:29:34;13.23;;;11.03;;
16822;SDS011;8528;49.976;11.858;2022-08-21T06:32:19;12.90;;;10.73;;
16822;SDS011;8528;49.976;11.858;2022-08-21T06:34:46;12.77;;;10.63;;
16822;SDS011;8528;49.976;11.858;2022-08-21T06:37:13;13.07;;;11.10;;
16822;SDS011;8528;49.976;11.858;2022-08-21T06:39:40;13.43;;;11.47;;
16822;SDS011;8528;49.976;11.858;2022-08-21T06:42:26;13.27;;;11.87;;
16822;SDS011;8528;49.976;11.858;2022-08-21T06:44:59;12.00;;;10.70;;
16822;SDS011;8528;49.976;11.858;2022-08-21T06:47:26;14.40;;;11.87;;
16822;SDS011;8528;49.976;11.858;2022-08-21T06:49:54;12.67;;;11.13;;
16822;SDS011;8528;49.976;11.858;2022-08-21T06:52:20;13.60;;;12.20;;
16822;SDS011;8528;49.976;11.858;2022-08-21T06:54:57;15.50;;;12.13;;
16822;SDS011;8528;49.976;11.858;2022-08-21T06:57:24;18.67;;;13.20;;
16822;SDS011;8528;49.976;11.858;2022-08-21T06:59:54;16.30;;;12.47;;
16822;SDS011;8528;49.976;11.858;2022-08-21T07:02:21;16.30;;;13.80;;
16822;SDS011;8528;49.976;11.858;2022-08-21T07:04:49;16.03;;;13.33;;
16822;SDS011;8528;49.976;11.858;2022-08-21T07:07:20;16.00;;;12.53;;
16822;SDS011;8528;49.976;11.858;2022-08-21T07:09:50;16.23;;;13.37;;
16822;SDS011;8528;49.976;11.858;2022-08-21T07:12:20;15.00;;;12.33;;
16822;SDS011;8528;49.976;11.858;2022-08-21T07:14:47;15.33;;;12.67;;
16822;SDS011;8528;49.976;11.858;2022-08-21T07:17:15;16.67;;;12.77;;
16822;SDS011;8528;49.976;11.858;2022-08-21T07:19:41;17.40;;;13.80;;
16822;SDS011;8528;49.976;11.858;2022-08-21T07:22:08;16.60;;;12.57;;
16822;SDS011;8528;49.976;11.858;2022-08-21T07:24:35;16.27;;;12.97;;
16822;SDS011;8528;49.976;11.858;2022-08-21T07:27:02;16.10;;;12.83;;
16822;SDS011;8528;49.976;11.858;2022-08-21T07:29:35;14.37;;;12.43;;
16822;SDS011;8528;49.976;11.858;2022-08-21T07:32:02;14.17;;;11.93;;
16822;SDS011;8528;49.976;11.858;2022-08-21T07:34:33;13.73;;;12.20;;
16822;SDS011;8528;49.976;11.858;2022-08-21T07:37:00;14.27;;;12.40;;
16822;SDS011;8528;49.976;11.858;2022-08-21T07:39:35;12.20;;;10.93;;
16822;SDS011;8528;49.976;11.858;2022-08-21T07:42:02;11.63;;;10.43;;
16822;SDS011;8528;49.976;11.858;2022-08-21T07:44:33;13.17;;;10.97;;
16822;SDS011;8528;49.976;11.858;2022-08-21T07:47:01;14.70;;;10.83;;
16822;SDS011;8528;49.976;11.858;2022-08-21T07:49:36;12.10;;;10.33;;
16822;SDS011;8528;49.976;11.858;2022-08-21T07:52:03;12.47;;;9.70;;
16822;SDS011;8528;49.976;11.858;2022-08-21T07:54:33;11.37;;;10.10;;
16822;SDS011;8528;49.976;11.858;2022-08-21T07:57:03;11.83;;;10.00;;
16822;SDS011;8528;49.976;11.858;2022-08-21T07:59:34;12.20;;;9.60;;
16822;SDS011;8528;49.976;11.858;2022-08-21T08:02:00;14.07;;;10.87;;
16822;SDS011;8528;49.976;11.858;2022-08-21T08:04:29;11.73;;;9.60;;
16822;SDS011;8528;49.976;11.858;2022-08-21T08:06:56;11.60;;;9.90;;
16822;SDS011;8528;49.976;11.858;2022-08-21T08:09:23;13.20;;;10.13;;
16822;SDS011;8528;49.976;11.858;2022-08-21T08:11:50;11.80;;;10.50;;
16822;SDS011;8528;49.976;11.858;2022-08-21T08:14:17;11.13;;;9.40;;
16822;SDS011;8528;49.976;11.858;2022-08-21T08:16:56;12.17;;;9.67;;
16822;SDS011;8528;49.976;11.858;2022-08-21T08:19:23;12.10;;;10.17;;
16822;SDS011;8528;49.976;11.858;2022-08-21T08:21:50;11.40;;;9.37;;
16822;SDS011;8528;49.976;11.858;2022-08-21T08:24:20;10.43;;;9.40;;
16822;SDS011;8528;49.976;11.858;2022-08-21T08:26:47;12.57;;;10.10;;
16822;SDS011;8528;49.976;11.858;2022-08-21T08:29:19;10.70;;;9.47;;
16822;SDS011;8528;49.976;11.858;2022-08-21T08:31:47;9.73;;;8.63;;
16822;SDS011;8528;49.976;11.858;2022-08-21T08:34:19;14.20;;;11.20;;
16822;SDS011;8528;49.976;11.858;2022-08-21T08:36:51;11.07;;;9.93;;
16822;SDS011;8528;49.976;11.858;2022-08-21T08:39:18;11.53;;;9.80;;
16822;SDS011;8528;49.976;11.858;2022-08-21T08:41:56;9.83;;;8.83;;
16822;SDS011;8528;49.976;11.858;2022-08-21T08:44:49;10.50;;;8.97;;
16822;SDS011;8528;49.976;11.858;2022-08-21T08:50:52;9.20;;;7.60;;
16822;SDS011;8528;49.976;11.858;2022-08-21T08:53:25;8.97;;;8.07;;
16822;SDS011;8528;49.976;11.858;2022-08-21T08:55:57;9.73;;;7.90;;
16822;SDS011;8528;49.976;11.858;2022-08-21T08:58:33;8.97;;;8.07;;
16822;SDS011;8528;49.976;11.858;2022-08-21T09:01:06;9.37;;;7.83;;
16822;SDS011;8528;49.976;11.858;2022-08-21T09:04:04;10.53;;;7.57;;
16822;SDS011;8528;49.976;11.858;2022-08-21T09:09:34;7.40;;;6.63;;
16822;SDS011;8528;49.976;11.858;2022-08-21T09:26:07;9.23;;;7.47;;
16822;SDS011;8528;49.976;11.858;2022-08-21T09:28:41;8.77;;;7.90;;
16822;SDS011;8528;49.976;11.858;2022-08-21T09:31:32;9.80;;;7.33;;
16822;SDS011;8528;49.976;11.858;2022-08-21T09:34:09;8.97;;;8.07;;
16822;SDS011;8528;49.976;11.858;2022-08-21T09:36:45;8.23;;;6.70;;
16822;SDS011;8528;49.976;11.858;2022-08-21T09:42:00;7.27;;;6.30;;
16822;SDS011;8528;49.976;11.858;2022-08-21T09:44:33;6.73;;;6.10;;
16822;SDS011;8528;49.976;11.858;2022-08-21T09:47:06;7.33;;;6.57;;
16822;SDS011;8528;49.976;11.858;2022-08-21T09:49:38;6.93;;;6.23;;
16822;SDS011;8528;49.976;11.858;2022-08-21T09:52:17;6.60;;;5.90;;
16822;SDS011;8528;49.976;11.858;2022-08-21T09:54:50;8.63;;;7.20;;
16822;SDS011;8528;49.976;11.858;2022-08-21T09:57:25;7.73;;;6.90;;
16822;SDS011;8528;49.976;11.858;2022-08-21T10:02:42;6.93;;;6.23;;
16822;SDS011;8528;49.976;11.858;2022-08-21T10:05:21;6.80;;;6.10;;
16822;SDS011;8528;49.976;11.858;2022-08-21T10:07:54;9.17;;;8.30;;
16822;SDS011;8528;49.976;11.858;2022-08-21T10:10:32;10.57;;;8.37;;
16822;SDS011;8528;49.976;11.858;2022-08-21T10:13:12;9.43;;;8.30;;
16822;SDS011;8528;49.976;11.858;2022-08-21T10:18:46;9.03;;;8.17;;
16822;SDS011;8528;49.976;11.858;2022-08-21T10:24:29;7.50;;;6.80;;
16822;SDS011;8528;49.976;11.858;2022-08-21T10:27:14;7.70;;;6.90;;
16822;SDS011;8528;49.976;11.858;2022-08-21T10:30:14;8.27;;;6.97;;
16822;SDS011;8528;49.976;11.858;2022-08-21T10:32:56;7.67;;;6.37;;
16822;SDS011;8528;49.976;11.858;2022-08-21T10:35:48;7.40;;;6.70;;
16822;SDS011;8528;49.976;11.858;2022-08-21T10:44:44;7.90;;;7.07;;
16822;SDS011;8528;49.976;11.858;2022-08-21T10:47:18;9.50;;;6.77;;
16822;SDS011;8528;49.976;11.858;2022-08-21T10:55:16;7.57;;;6.87;;
16822;SDS011;8528;49.976;11.858;2022-08-21T11:03:40;8.10;;;7.30;;
16822;SDS011;8528;49.976;11.858;2022-08-21T11:06:18;7.53;;;6.83;;
16822;SDS011;8528;49.976;11.858;2022-08-21T11:08:52;7.67;;;6.83;;
16822;SDS011;8528;49.976;11.858;2022-08-21T11:11:38;7.00;;;6.30;;
16822;SDS011;8528;49.976;11.858;2022-08-21T11:17:22;6.47;;;5.87;;
16822;SDS011;8528;49.976;11.858;2022-08-21T11:20:15;8.20;;;6.77;;
16822;SDS011;8528;49.976;11.858;2022-08-21T11:22:58;6.07;;;5.50;;
16822;SDS011;8528;49.976;11.858;2022-08-21T11:25:40;9.80;;;6.30;;
16822;SDS011;8528;49.976;11.858;2022-08-21T11:28:18;6.80;;;6.13;;
16822;SDS011;8528;49.976;11.858;2022-08-21T11:36:15;7.83;;;7.00;;
16822;SDS011;8528;49.976;11.858;2022-08-21T11:39:02;8.07;;;7.27;;
16822;SDS011;8528;49.976;11.858;2022-08-21T11:42:26;8.67;;;7.77;;
16822;SDS011;8528;49.976;11.858;2022-08-21T11:47:49;7.63;;;6.93;;
16822;SDS011;8528;49.976;11.858;2022-08-21T11:50:32;8.07;;;7.00;;
16822;SDS011;8528;49.976;11.858;2022-08-21T11:55:39;6.80;;;6.10;;
16822;SDS011;8528;49.976;11.858;2022-08-21T11:58:40;7.30;;;6.63;;
16822;SDS011;8528;49.976;11.858;2022-08-21T12:01:11;7.37;;;6.57;;
16822;SDS011;8528;49.976;11.858;2022-08-21T12:03:50;7.20;;;6.50;;
16822;SDS011;8528;49.976;11.858;2022-08-21T12:06:27;6.93;;;6.27;;
16822;SDS011;8528;49.976;11.858;2022-08-21T12:09:07;6.70;;;6.10;;
16822;SDS011;8528;49.976;11.858;2022-08-21T12:17:18;7.83;;;7.07;;
16822;SDS011;8528;49.976;11.858;2022-08-21T12:22:52;6.53;;;5.57;;
16822;SDS011;8528;49.976;11.858;2022-08-21T12:25:37;6.00;;;5.50;;
16822;SDS011;8528;49.976;11.858;2022-08-21T12:28:10;5.63;;;5.13;;
16822;SDS011;8528;49.976;11.858;2022-08-21T12:30:46;6.17;;;5.67;;
16822;SDS011;8528;49.976;11.858;2022-08-21T12:33:30;16.10;;;9.30;;
16822;SDS011;8528;49.976;11.858;2022-08-21T12:36:09;8.40;;;6.60;;
16822;SDS011;8528;49.976;11.858;2022-08-21T12:38:47;32.13;;;14.50;;
16822;SDS011;8528;49.976;11.858;2022-08-21T12:41:34;8.17;;;6.90;;
16822;SDS011;8528;49.976;11.858;2022-08-21T12:44:28;9.57;;;7.10;;
16822;SDS011;8528;49.976;11.858;2022-08-21T12:47:06;10.40;;;7.03;;
16822;SDS011;8528;49.976;11.858;2022-08-21T12:49:44;7.53;;;6.73;;
16822;SDS011;8528;49.976;11.858;2022-08-21T12:52:24;6.87;;;6.13;;
16822;SDS011;8528;49.976;11.858;2022-08-21T12:55:05;5.40;;;4.90;;
16822;SDS011;8528;49.976;11.858;2022-08-21T12:57:35;6.37;;;5.87;;
16822;SDS011;8528;49.976;11.858;2022-08-21T13:00:04;5.07;;;4.67;;
16822;SDS011;8528;49.976;11.858;2022-08-21T13:02:41;6.43;;;5.83;;
16822;SDS011;8528;49.976;11.858;2022-08-21T13:05:19;6.30;;;5.70;;
16822;SDS011;8528;49.976;11.858;2022-08-21T13:07:59;5.77;;;5.17;;
16822;SDS011;8528;49.976;11.858;2022-08-21T13:10:30;5.63;;;5.13;;
16822;SDS011;8528;49.976;11.858;2022-08-21T13:13:05;6.63;;;5.80;;
16822;SDS011;8528;49.976;11.858;2022-08-21T13:15:38;5.27;;;4.77;;
16822;SDS011;8528;49.976;11.858;2022-08-21T13:21:30;5.00;;;4.60;;
16822;SDS011;8528;49.976;11.858;2022-08-21T13:30:08;4.80;;;4.20;;
16822;SDS011;8528;49.976;11.858;2022-08-21T13:32:44;5.63;;;4.50;;
16822;SDS011;8528;49.976;11.858;2022-08-21T13:35:22;6.07;;;4.37;;
16822;SDS011;8528;49.976;11.858;2022-08-21T13:37:56;4.73;;;4.30;;
16822;SDS011;8528;49.976;11.858;2022-08-21T13:40:30;4.60;;;4.13;;
16822;SDS011;8528;49.976;11.858;2022-08-21T13:43:16;4.83;;;4.43;;
16822;SDS011;8528;49.976;11.858;2022-08-21T13:45:51;4.53;;;3.90;;
16822;SDS011;8528;49.976;11.858;2022-08-21T13:48:20;4.83;;;4.37;;
16822;SDS011;8528;49.976;11.858;2022-08-21T13:50:49;4.17;;;3.77;;
16822;SDS011;8528;49.976;11.858;2022-08-21T13:53:33;4.33;;;3.73;;
16822;SDS011;8528;49.976;11.858;2022-08-21T13:56:02;3.77;;;3.47;;
16822;SDS011;8528;49.976;11.858;2022-08-21T13:58:44;3.70;;;3.40;;
16822;SDS011;8528;49.976;11.858;2022-08-21T14:01:19;4.33;;;3.37;;
16822;SDS011;8528;49.976;11.858;2022-08-21T14:04:01;4.23;;;3.53;;
16822;SDS011;8528;49.976;11.858;2022-08-21T14:06:35;5.70;;;4.33;;
16822;SDS011;8528;49.976;11.858;2022-08-21T14:09:13;3.97;;;3.63;;
16822;SDS011;8528;49.976;11.858;2022-08-21T14:12:04;4.43;;;3.80;;
16822;SDS011;8528;49.976;11.858;2022-08-21T14:14:58;5.23;;;4.53;;
16822;SDS011;8528;49.976;11.858;2022-08-21T14:17:32;4.30;;;3.90;;
16822;SDS011;8528;49.976;11.858;2022-08-21T14:20:03;4.27;;;3.87;;
16822;SDS011;8528;49.976;11.858;2022-08-21T14:22:39;4.00;;;3.60;;
16822;SDS011;8528;49.976;11.858;2022-08-21T14:27:51;3.83;;;3.53;;
16822;SDS011;8528;49.976;11.858;2022-08-21T14:30:21;5.10;;;3.30;;
16822;SDS011;8528;49.976;11.858;2022-08-21T14:32:54;4.33;;;3.53;;
16822;SDS011;8528;49.976;11.858;2022-08-21T14:35:25;3.80;;;3.50;;
16822;SDS011;8528;49.976;11.858;2022-08-21T14:37:53;4.20;;;3.80;;
16822;SDS011;8528;49.976;11.858;2022-08-21T14:40:22;4.80;;;3.83;;
16822;SDS011;8528;49.976;11.858;2022-08-21T14:42:53;5.97;;;4.27;;
16822;SDS011;8528;49.976;11.858;2022-08-21T14:45:28;6.13;;;4.20;;
16822;SDS011;8528;49.976;11.858;2022-08-21T14:47:59;5.10;;;3.77;;
16822;SDS011;8528;49.976;11.858;2022-08-21T14:50:26;3.80;;;3.50;;
16822;SDS011;8528;49.976;11.858;2022-08-21T14:52:53;3.63;;;3.33;;
16822;SDS011;8528;49.976;11.858;2022-08-21T14:55:20;4.13;;;3.77;;
16822;SDS011;8528;49.976;11.858;2022-08-21T14:57:48;3.77;;;3.47;;
16822;SDS011;8528;49.976;11.858;2022-08-21T15:00:19;4.17;;;3.73;;
16822;SDS011;8528;49.976;11.858;2022-08-21T15:03:01;5.40;;;4.90;;
16822;SDS011;8528;49.976;11.858;2022-08-21T15:05:34;4.22;;;3.92;;
16822;SDS011;8528;49.976;11.858;2022-08-21T15:08:01;4.15;;;3.75;;
16822;SDS011;8528;49.976;11.858;2022-08-21T15:10:34;4.00;;;3.70;;
16822;SDS011;8528;49.976;11.858;2022-08-21T15:13:24;3.70;;;3.40;;
16822;SDS011;8528;49.976;11.858;2022-08-21T15:15:51;3.60;;;3.30;;
16822;SDS011;8528;49.976;11.858;2022-08-21T15:18:19;4.68;;;3.75;;
16822;SDS011;8528;49.976;11.858;2022-08-21T15:20:52;3.67;;;3.38;;
16822;SDS011;8528;49.976;11.858;2022-08-21T15:23:19;4.00;;;3.70;;
16822;SDS011;8528;49.976;11.858;2022-08-21T15:25:48;3.85;;;3.55;;
16822;SDS011;8528;49.976;11.858;2022-08-21T15:28:17;3.63;;;3.33;;
16822;SDS011;8528;49.976;11.858;2022-08-21T15:30:44;3.90;;;3.50;;
16822;SDS011;8528;49.976;11.858;2022-08-21T15:33:12;4.20;;;3.80;;
16822;SDS011;8528;49.976;11.858;2022-08-21T15:35:38;3.65;;;3.35;;
16822;SDS011;8528;49.976;11.858;2022-08-21T15:38:06;4.47;;;4.07;;
16822;SDS011;8528;49.976;11.858;2022-08-21T15:40:40;3.88;;;3.58;;
16822;SDS011;8528;49.976;11.858;2022-08-21T15:43:22;4.55;;;4.15;;
16822;SDS011;8528;49.976;11.858;2022-08-21T15:46:03;4.28;;;3.88;;
16822;SDS011;8528;49.976;11.858;2022-08-21T15:48:32;4.00;;;3.70;;
16822;SDS011;8528;49.976;11.858;2022-08-21T15:50:58;3.83;;;3.53;;
16822;SDS011;8528;49.976;11.858;2022-08-21T15:53:28;3.83;;;3.53;;
16822;SDS011;8528;49.976;11.858;2022-08-21T15:56:01;3.50;;;3.20;;
16822;SDS011;8528;49.976;11.858;2022-08-21T15:58:28;3.80;;;3.50;;
16822;SDS011;8528;49.976;11.858;2022-08-21T16:00:57;4.18;;;3.80;;
16822;SDS011;8528;49.976;11.858;2022-08-21T16:03:26;3.83;;;3.50;;
16822;SDS011;8528;49.976;11.858;2022-08-21T16:05:56;4.07;;;3.78;;
16822;SDS011;8528;49.976;11.858;2022-08-21T16:08:25;3.78;;;3.47;;
16822;SDS011;8528;49.976;11.858;2022-08-21T16:10:54;4.03;;;3.72;;
16822;SDS011;8528;49.976;11.858;2022-08-21T16:13:25;3.88;;;3.58;;
16822;SDS011;8528;49.976;11.858;2022-08-21T16:15:54;4.30;;;3.75;;
16822;SDS011;8528;49.976;11.858;2022-08-21T16:18:21;3.95;;;3.65;;
16822;SDS011;8528;49.976;11.858;2022-08-21T16:20:50;3.72;;;3.40;;
16822;SDS011;8528;49.976;11.858;2022-08-21T16:23:20;4.13;;;3.83;;
16822;SDS011;8528;49.976;11.858;2022-08-21T16:25:50;4.40;;;4.00;;
16822;SDS011;8528;49.976;11.858;2022-08-21T16:28:18;3.83;;;3.53;;
16822;SDS011;8528;49.976;11.858;2022-08-21T16:30:46;4.17;;;3.87;;